sensor_id;sensor_type;location;lat;lon;timestamp;P1;durP1;ratioP1;P2;durP2;ratioP2
77722;SDS011;67811;42.656;23.394;2023-04-24T00:02:03;9.80;;;4.00;;
77722;SDS011;67811;42.656;23.394;2023-04-24T00:04:29;8.68;;;4.70;;
77722;SDS011;67811;42.656;23.394;2023-04-24T00:06:55;7.95;;;4.10;;
77722;SDS011;67811;42.656;23.394;2023-04-24T00:09:20;5.47;;;4.20;;
77722;SDS011;67811;42.656;23.394;2023-04-24T00:11:45;8.05;;;4.50;;
77722;SDS011;67811;42.656;23.394;2023-04-24T00:14:11;6.88;;;3.92;;
77722;SDS011;67811;42.656;23.394;2023-04-24T00:16:36;5.63;;;4.35;;
77722;SDS011;67811;42.656;23.394;2023-04-24T00:19:01;5.88;;;4.63;;
77722;SDS011;67811;42.656;23.394;2023-04-24T00:21:27;6.57;;;4.05;;
77722;SDS011;67811;42.656;23.394;2023-04-24T00:23:52;7.65;;;4.60;;
77722;SDS011;67811;42.656;23.394;2023-04-24T00:26:18;8.18;;;4.28;;
77722;SDS011;67811;42.656;23.394;2023-04-24T00:28:43;8.05;;;5.22;;
77722;SDS011;67811;42.656;23.394;2023-04-24T00:31:08;4.18;;;3.75;;
77722;SDS011;67811;42.656;23.394;2023-04-24T00:33:34;9.00;;;4.97;;
77722;SDS011;67811;42.656;23.394;2023-04-24T00:35:59;6.15;;;3.85;;
77722;SDS011;67811;42.656;23.394;2023-04-24T00:38:24;6.45;;;4.30;;
77722;SDS011;67811;42.656;23.394;2023-04-24T00:40:50;7.93;;;5.25;;
77722;SDS011;67811;42.656;23.394;2023-04-24T00:43:15;7.10;;;4.57;;
77722;SDS011;67811;42.656;23.394;2023-04-24T00:45:41;5.35;;;3.92;;
77722;SDS011;67811;42.656;23.394;2023-04-24T00:48:08;6.63;;;4.60;;
77722;SDS011;67811;42.656;23.394;2023-04-24T00:50:35;6.50;;;4.25;;
77722;SDS011;67811;42.656;23.394;2023-04-24T00:53:01;8.13;;;4.55;;
77722;SDS011;67811;42.656;23.394;2023-04-24T00:55:26;5.95;;;4.28;;
77722;SDS011;67811;42.656;23.394;2023-04-24T00:57:51;7.30;;;4.07;;
77722;SDS011;67811;42.656;23.394;2023-04-24T01:00:17;8.48;;;4.70;;
77722;SDS011;67811;42.656;23.394;2023-04-24T01:02:43;8.05;;;4.50;;
77722;SDS011;67811;42.656;23.394;2023-04-24T01:05:09;9.77;;;5.05;;
77722;SDS011;67811;42.656;23.394;2023-04-24T01:07:35;9.93;;;5.65;;
77722;SDS011;67811;42.656;23.394;2023-04-24T01:10:01;8.82;;;4.63;;
77722;SDS011;67811;42.656;23.394;2023-04-24T01:12:27;8.38;;;5.57;;
77722;SDS011;67811;42.656;23.394;2023-04-24T01:14:52;8.63;;;5.32;;
77722;SDS011;67811;42.656;23.394;2023-04-24T01:17:17;7.35;;;5.22;;
77722;SDS011;67811;42.656;23.394;2023-04-24T01:19:43;7.15;;;4.80;;
77722;SDS011;67811;42.656;23.394;2023-04-24T01:22:10;7.10;;;5.15;;
77722;SDS011;67811;42.656;23.394;2023-04-24T01:24:36;5.13;;;4.30;;
77722;SDS011;67811;42.656;23.394;2023-04-24T01:27:01;6.80;;;5.40;;
77722;SDS011;67811;42.656;23.394;2023-04-24T01:29:27;8.80;;;5.15;;
77722;SDS011;67811;42.656;23.394;2023-04-24T01:31:52;6.03;;;5.15;;
77722;SDS011;67811;42.656;23.394;2023-04-24T01:34:19;5.80;;;4.18;;
77722;SDS011;67811;42.656;23.394;2023-04-24T01:36:45;6.55;;;5.07;;
77722;SDS011;67811;42.656;23.394;2023-04-24T01:39:11;8.18;;;5.15;;
77722;SDS011;67811;42.656;23.394;2023-04-24T01:41:36;9.65;;;5.05;;
77722;SDS011;67811;42.656;23.394;2023-04-24T01:44:02;8.65;;;4.90;;
77722;SDS011;67811;42.656;23.394;2023-04-24T01:46:27;6.10;;;4.65;;
77722;SDS011;67811;42.656;23.394;2023-04-24T01:48:53;9.68;;;5.97;;
77722;SDS011;67811;42.656;23.394;2023-04-24T01:51:18;9.70;;;5.60;;
77722;SDS011;67811;42.656;23.394;2023-04-24T01:53:43;8.30;;;5.43;;
77722;SDS011;67811;42.656;23.394;2023-04-24T01:56:09;10.57;;;6.22;;
77722;SDS011;67811;42.656;23.394;2023-04-24T01:58:35;7.47;;;5.15;;
77722;SDS011;67811;42.656;23.394;2023-04-24T02:01:00;8.38;;;5.43;;
77722;SDS011;67811;42.656;23.394;2023-04-24T02:03:26;8.50;;;4.75;;
77722;SDS011;67811;42.656;23.394;2023-04-24T02:05:51;7.47;;;4.72;;
77722;SDS011;67811;42.656;23.394;2023-04-24T02:08:16;10.35;;;4.85;;
77722;SDS011;67811;42.656;23.394;2023-04-24T02:10:42;7.68;;;5.05;;
77722;SDS011;67811;42.656;23.394;2023-04-24T02:13:07;8.85;;;5.70;;
77722;SDS011;67811;42.656;23.394;2023-04-24T02:15:32;7.32;;;5.78;;
77722;SDS011;67811;42.656;23.394;2023-04-24T02:17:58;6.70;;;5.07;;
77722;SDS011;67811;42.656;23.394;2023-04-24T02:20:23;10.18;;;6.30;;
77722;SDS011;67811;42.656;23.394;2023-04-24T02:22:49;10.15;;;6.45;;
77722;SDS011;67811;42.656;23.394;2023-04-24T02:25:14;9.40;;;5.88;;
77722;SDS011;67811;42.656;23.394;2023-04-24T02:27:39;10.60;;;5.82;;
77722;SDS011;67811;42.656;23.394;2023-04-24T02:30:05;11.02;;;5.75;;
77722;SDS011;67811;42.656;23.394;2023-04-24T02:32:31;8.38;;;5.40;;
77722;SDS011;67811;42.656;23.394;2023-04-24T02:34:56;7.25;;;5.60;;
77722;SDS011;67811;42.656;23.394;2023-04-24T02:37:21;10.23;;;6.32;;
77722;SDS011;67811;42.656;23.394;2023-04-24T02:39:47;8.30;;;6.60;;
77722;SDS011;67811;42.656;23.394;2023-04-24T02:42:12;15.75;;;5.85;;
77722;SDS011;67811;42.656;23.394;2023-04-24T02:44:37;10.63;;;6.97;;
77722;SDS011;67811;42.656;23.394;2023-04-24T02:47:03;11.50;;;5.88;;
77722;SDS011;67811;42.656;23.394;2023-04-24T02:49:28;7.47;;;5.70;;
77722;SDS011;67811;42.656;23.394;2023-04-24T02:51:53;10.80;;;5.63;;
77722;SDS011;67811;42.656;23.394;2023-04-24T02:54:19;7.00;;;5.03;;
77722;SDS011;67811;42.656;23.394;2023-04-24T02:56:44;8.38;;;5.13;;
77722;SDS011;67811;42.656;23.394;2023-04-24T02:59:09;8.63;;;6.22;;
77722;SDS011;67811;42.656;23.394;2023-04-24T03:01:34;9.27;;;5.20;;
77722;SDS011;67811;42.656;23.394;2023-04-24T03:04:00;8.10;;;5.03;;
77722;SDS011;67811;42.656;23.394;2023-04-24T03:06:25;8.90;;;5.88;;
77722;SDS011;67811;42.656;23.394;2023-04-24T03:08:50;11.63;;;6.28;;
77722;SDS011;67811;42.656;23.394;2023-04-24T03:11:16;12.05;;;5.90;;
77722;SDS011;67811;42.656;23.394;2023-04-24T03:13:41;11.02;;;5.13;;
77722;SDS011;67811;42.656;23.394;2023-04-24T03:16:06;14.45;;;6.43;;
77722;SDS011;67811;42.656;23.394;2023-04-24T03:18:32;11.30;;;6.90;;
77722;SDS011;67811;42.656;23.394;2023-04-24T03:20:57;9.77;;;7.00;;
77722;SDS011;67811;42.656;23.394;2023-04-24T03:23:22;13.07;;;6.97;;
77722;SDS011;67811;42.656;23.394;2023-04-24T03:25:47;10.07;;;6.65;;
77722;SDS011;67811;42.656;23.394;2023-04-24T03:28:14;8.52;;;6.28;;
77722;SDS011;67811;42.656;23.394;2023-04-24T03:30:39;8.77;;;6.05;;
77722;SDS011;67811;42.656;23.394;2023-04-24T03:33:05;13.57;;;6.10;;
77722;SDS011;67811;42.656;23.394;2023-04-24T03:35:30;11.00;;;6.05;;
77722;SDS011;67811;42.656;23.394;2023-04-24T03:37:55;11.63;;;5.70;;
77722;SDS011;67811;42.656;23.394;2023-04-24T03:40:21;11.98;;;5.95;;
77722;SDS011;67811;42.656;23.394;2023-04-24T03:42:46;10.40;;;6.50;;
77722;SDS011;67811;42.656;23.394;2023-04-24T03:45:11;11.45;;;6.40;;
77722;SDS011;67811;42.656;23.394;2023-04-24T03:47:37;7.18;;;6.10;;
77722;SDS011;67811;42.656;23.394;2023-04-24T03:50:02;8.95;;;7.03;;
77722;SDS011;67811;42.656;23.394;2023-04-24T03:52:27;9.38;;;6.28;;
77722;SDS011;67811;42.656;23.394;2023-04-24T03:54:53;15.07;;;7.65;;
77722;SDS011;67811;42.656;23.394;2023-04-24T03:57:18;9.20;;;6.50;;
77722;SDS011;67811;42.656;23.394;2023-04-24T03:59:43;11.25;;;7.28;;
77722;SDS011;67811;42.656;23.394;2023-04-24T04:02:09;9.18;;;6.43;;
77722;SDS011;67811;42.656;23.394;2023-04-24T04:04:34;11.73;;;6.10;;
77722;SDS011;67811;42.656;23.394;2023-04-24T04:06:59;15.93;;;6.20;;
77722;SDS011;67811;42.656;23.394;2023-04-24T04:09:25;9.27;;;5.38;;
77722;SDS011;67811;42.656;23.394;2023-04-24T04:11:50;12.98;;;5.60;;
77722;SDS011;67811;42.656;23.394;2023-04-24T04:14:15;18.90;;;5.88;;
77722;SDS011;67811;42.656;23.394;2023-04-24T04:16:41;16.13;;;7.00;;
77722;SDS011;67811;42.656;23.394;2023-04-24T04:19:06;14.88;;;6.38;;
77722;SDS011;67811;42.656;23.394;2023-04-24T04:21:31;10.63;;;5.70;;
77722;SDS011;67811;42.656;23.394;2023-04-24T04:23:56;8.23;;;5.18;;
77722;SDS011;67811;42.656;23.394;2023-04-24T04:26:22;7.05;;;4.53;;
77722;SDS011;67811;42.656;23.394;2023-04-24T04:28:47;7.57;;;4.63;;
77722;SDS011;67811;42.656;23.394;2023-04-24T04:31:12;12.00;;;5.63;;
77722;SDS011;67811;42.656;23.394;2023-04-24T04:33:38;7.53;;;5.82;;
77722;SDS011;67811;42.656;23.394;2023-04-24T04:36:03;6.80;;;4.35;;
77722;SDS011;67811;42.656;23.394;2023-04-24T04:38:29;8.30;;;4.22;;
77722;SDS011;67811;42.656;23.394;2023-04-24T04:40:54;13.20;;;5.50;;
77722;SDS011;67811;42.656;23.394;2023-04-24T04:43:19;6.88;;;4.57;;
77722;SDS011;67811;42.656;23.394;2023-04-24T04:45:45;12.48;;;6.15;;
77722;SDS011;67811;42.656;23.394;2023-04-24T04:48:10;8.82;;;5.20;;
77722;SDS011;67811;42.656;23.394;2023-04-24T04:50:35;7.25;;;5.63;;
77722;SDS011;67811;42.656;23.394;2023-04-24T04:53:01;9.80;;;5.03;;
77722;SDS011;67811;42.656;23.394;2023-04-24T04:55:26;8.52;;;4.82;;
77722;SDS011;67811;42.656;23.394;2023-04-24T04:57:52;6.40;;;5.28;;
77722;SDS011;67811;42.656;23.394;2023-04-24T05:00:17;8.25;;;5.13;;
77722;SDS011;67811;42.656;23.394;2023-04-24T05:02:43;11.63;;;5.88;;
77722;SDS011;67811;42.656;23.394;2023-04-24T05:05:08;9.07;;;5.90;;
77722;SDS011;67811;42.656;23.394;2023-04-24T05:07:34;9.48;;;5.25;;
77722;SDS011;67811;42.656;23.394;2023-04-24T05:09:59;8.35;;;4.32;;
77722;SDS011;67811;42.656;23.394;2023-04-24T05:12:25;10.52;;;4.60;;
77722;SDS011;67811;42.656;23.394;2023-04-24T05:14:50;13.18;;;6.18;;
77722;SDS011;67811;42.656;23.394;2023-04-24T05:17:16;7.55;;;4.95;;
77722;SDS011;67811;42.656;23.394;2023-04-24T05:19:41;10.27;;;4.85;;
77722;SDS011;67811;42.656;23.394;2023-04-24T05:22:08;9.55;;;5.80;;
77722;SDS011;67811;42.656;23.394;2023-04-24T05:24:33;8.07;;;5.13;;
77722;SDS011;67811;42.656;23.394;2023-04-24T05:26:59;8.48;;;4.68;;
77722;SDS011;67811;42.656;23.394;2023-04-24T05:29:25;7.47;;;5.20;;
77722;SDS011;67811;42.656;23.394;2023-04-24T05:31:50;7.80;;;4.63;;
77722;SDS011;67811;42.656;23.394;2023-04-24T05:34:15;8.30;;;5.20;;
77722;SDS011;67811;42.656;23.394;2023-04-24T05:36:41;8.73;;;4.97;;
77722;SDS011;67811;42.656;23.394;2023-04-24T05:39:06;9.23;;;4.85;;
77722;SDS011;67811;42.656;23.394;2023-04-24T05:41:31;19.08;;;5.88;;
77722;SDS011;67811;42.656;23.394;2023-04-24T05:43:57;21.10;;;5.47;;
77722;SDS011;67811;42.656;23.394;2023-04-24T05:46:22;11.77;;;6.32;;
77722;SDS011;67811;42.656;23.394;2023-04-24T05:48:47;11.43;;;5.82;;
77722;SDS011;67811;42.656;23.394;2023-04-24T05:51:12;10.52;;;4.95;;
77722;SDS011;67811;42.656;23.394;2023-04-24T05:53:38;12.13;;;5.97;;
77722;SDS011;67811;42.656;23.394;2023-04-24T05:56:03;9.45;;;5.95;;
77722;SDS011;67811;42.656;23.394;2023-04-24T05:58:28;9.02;;;4.82;;
77722;SDS011;67811;42.656;23.394;2023-04-24T06:00:54;10.93;;;6.60;;
77722;SDS011;67811;42.656;23.394;2023-04-24T06:03:19;11.25;;;5.68;;
77722;SDS011;67811;42.656;23.394;2023-04-24T06:05:44;9.20;;;5.20;;
77722;SDS011;67811;42.656;23.394;2023-04-24T06:08:09;11.73;;;5.28;;
77722;SDS011;67811;42.656;23.394;2023-04-24T06:10:35;9.82;;;5.47;;
77722;SDS011;67811;42.656;23.394;2023-04-24T06:13:00;8.02;;;5.30;;
77722;SDS011;67811;42.656;23.394;2023-04-24T06:15:27;9.00;;;6.50;;
77722;SDS011;67811;42.656;23.394;2023-04-24T06:17:56;10.68;;;5.90;;
77722;SDS011;67811;42.656;23.394;2023-04-24T06:20:21;7.97;;;5.53;;
77722;SDS011;67811;42.656;23.394;2023-04-24T06:22:47;9.68;;;5.68;;
77722;SDS011;67811;42.656;23.394;2023-04-24T06:25:12;6.35;;;4.75;;
77722;SDS011;67811;42.656;23.394;2023-04-24T06:27:37;10.43;;;5.60;;
77722;SDS011;67811;42.656;23.394;2023-04-24T06:30:03;11.75;;;4.97;;
77722;SDS011;67811;42.656;23.394;2023-04-24T06:32:28;11.95;;;5.63;;
77722;SDS011;67811;42.656;23.394;2023-04-24T06:34:54;7.80;;;5.30;;
77722;SDS011;67811;42.656;23.394;2023-04-24T06:37:22;7.85;;;6.15;;
77722;SDS011;67811;42.656;23.394;2023-04-24T06:39:47;8.90;;;6.70;;
77722;SDS011;67811;42.656;23.394;2023-04-24T06:42:13;14.13;;;6.05;;
77722;SDS011;67811;42.656;23.394;2023-04-24T06:44:38;7.93;;;5.93;;
77722;SDS011;67811;42.656;23.394;2023-04-24T06:47:03;10.38;;;5.60;;
77722;SDS011;67811;42.656;23.394;2023-04-24T06:49:29;14.35;;;6.07;;
77722;SDS011;67811;42.656;23.394;2023-04-24T06:51:54;8.25;;;5.72;;
77722;SDS011;67811;42.656;23.394;2023-04-24T06:54:19;7.13;;;6.20;;
77722;SDS011;67811;42.656;23.394;2023-04-24T06:56:44;10.77;;;5.53;;
77722;SDS011;67811;42.656;23.394;2023-04-24T06:59:10;21.02;;;8.25;;
77722;SDS011;67811;42.656;23.394;2023-04-24T07:01:35;18.35;;;6.10;;
77722;SDS011;67811;42.656;23.394;2023-04-24T07:04:00;19.23;;;6.53;;
77722;SDS011;67811;42.656;23.394;2023-04-24T07:06:26;10.45;;;5.13;;
77722;SDS011;67811;42.656;23.394;2023-04-24T07:08:51;7.82;;;4.97;;
77722;SDS011;67811;42.656;23.394;2023-04-24T07:11:16;8.32;;;5.78;;
77722;SDS011;67811;42.656;23.394;2023-04-24T07:13:41;17.52;;;5.93;;
77722;SDS011;67811;42.656;23.394;2023-04-24T07:16:07;8.95;;;5.43;;
77722;SDS011;67811;42.656;23.394;2023-04-24T07:18:33;9.32;;;5.65;;
77722;SDS011;67811;42.656;23.394;2023-04-24T07:20:58;10.93;;;4.80;;
77722;SDS011;67811;42.656;23.394;2023-04-24T07:23:23;11.98;;;5.60;;
77722;SDS011;67811;42.656;23.394;2023-04-24T07:25:49;13.55;;;6.70;;
77722;SDS011;67811;42.656;23.394;2023-04-24T07:28:14;11.65;;;5.60;;
77722;SDS011;67811;42.656;23.394;2023-04-24T07:30:39;9.00;;;5.43;;
77722;SDS011;67811;42.656;23.394;2023-04-24T07:33:04;7.97;;;4.72;;
77722;SDS011;67811;42.656;23.394;2023-04-24T07:35:30;6.90;;;5.10;;
77722;SDS011;67811;42.656;23.394;2023-04-24T07:37:55;7.85;;;5.15;;
77722;SDS011;67811;42.656;23.394;2023-04-24T07:40:21;8.10;;;5.03;;
77722;SDS011;67811;42.656;23.394;2023-04-24T07:42:47;9.98;;;5.82;;
77722;SDS011;67811;42.656;23.394;2023-04-24T07:45:12;11.38;;;5.63;;
77722;SDS011;67811;42.656;23.394;2023-04-24T07:47:37;13.10;;;6.55;;
77722;SDS011;67811;42.656;23.394;2023-04-24T07:50:03;11.77;;;6.28;;
77722;SDS011;67811;42.656;23.394;2023-04-24T07:52:28;9.98;;;5.95;;
77722;SDS011;67811;42.656;23.394;2023-04-24T07:54:54;10.48;;;6.25;;
77722;SDS011;67811;42.656;23.394;2023-04-24T07:57:20;9.80;;;6.18;;
77722;SDS011;67811;42.656;23.394;2023-04-24T07:59:45;10.20;;;6.25;;
77722;SDS011;67811;42.656;23.394;2023-04-24T08:02:10;14.07;;;5.28;;
77722;SDS011;67811;42.656;23.394;2023-04-24T08:04:35;10.23;;;5.20;;
77722;SDS011;67811;42.656;23.394;2023-04-24T08:07:01;7.90;;;5.18;;
77722;SDS011;67811;42.656;23.394;2023-04-24T08:09:26;9.85;;;5.03;;
77722;SDS011;67811;42.656;23.394;2023-04-24T08:11:51;11.40;;;4.97;;
77722;SDS011;67811;42.656;23.394;2023-04-24T08:14:17;6.20;;;4.32;;
77722;SDS011;67811;42.656;23.394;2023-04-24T08:16:42;7.20;;;4.10;;
77722;SDS011;67811;42.656;23.394;2023-04-24T08:19:07;8.77;;;4.05;;
77722;SDS011;67811;42.656;23.394;2023-04-24T08:21:33;6.07;;;3.58;;
77722;SDS011;67811;42.656;23.394;2023-04-24T08:23:58;5.78;;;4.47;;
77722;SDS011;67811;42.656;23.394;2023-04-24T08:26:23;6.28;;;4.20;;
77722;SDS011;67811;42.656;23.394;2023-04-24T08:28:49;4.90;;;3.75;;
77722;SDS011;67811;42.656;23.394;2023-04-24T08:31:14;6.22;;;4.15;;
77722;SDS011;67811;42.656;23.394;2023-04-24T08:33:39;7.28;;;5.85;;
77722;SDS011;67811;42.656;23.394;2023-04-24T08:36:05;7.43;;;4.32;;
77722;SDS011;67811;42.656;23.394;2023-04-24T08:38:31;9.30;;;4.97;;
77722;SDS011;67811;42.656;23.394;2023-04-24T08:40:57;7.80;;;5.10;;
77722;SDS011;67811;42.656;23.394;2023-04-24T08:43:24;8.88;;;4.68;;
77722;SDS011;67811;42.656;23.394;2023-04-24T08:45:50;8.00;;;4.30;;
77722;SDS011;67811;42.656;23.394;2023-04-24T08:48:15;5.93;;;4.07;;
77722;SDS011;67811;42.656;23.394;2023-04-24T08:50:42;7.68;;;4.10;;
77722;SDS011;67811;42.656;23.394;2023-04-24T08:53:08;8.38;;;4.75;;
77722;SDS011;67811;42.656;23.394;2023-04-24T08:55:34;5.22;;;3.78;;
77722;SDS011;67811;42.656;23.394;2023-04-24T08:57:59;8.73;;;4.00;;
77722;SDS011;67811;42.656;23.394;2023-04-24T09:02:53;5.88;;;3.67;;
77722;SDS011;67811;42.656;23.394;2023-04-24T09:05:18;6.43;;;3.50;;
77722;SDS011;67811;42.656;23.394;2023-04-24T09:07:54;8.77;;;3.90;;
77722;SDS011;67811;42.656;23.394;2023-04-24T09:10:21;8.18;;;4.05;;
77722;SDS011;67811;42.656;23.394;2023-04-24T09:12:49;6.80;;;3.70;;
77722;SDS011;67811;42.656;23.394;2023-04-24T09:15:15;6.90;;;3.22;;
77722;SDS011;67811;42.656;23.394;2023-04-24T09:17:41;7.07;;;3.80;;
77722;SDS011;67811;42.656;23.394;2023-04-24T09:20:07;6.68;;;3.50;;
77722;SDS011;67811;42.656;23.394;2023-04-24T09:22:33;7.85;;;3.65;;
77722;SDS011;67811;42.656;23.394;2023-04-24T09:25:02;4.65;;;3.65;;
77722;SDS011;67811;42.656;23.394;2023-04-24T09:27:32;4.68;;;3.38;;
77722;SDS011;67811;42.656;23.394;2023-04-24T09:29:58;3.80;;;3.40;;
77722;SDS011;67811;42.656;23.394;2023-04-24T09:32:24;6.40;;;3.90;;
77722;SDS011;67811;42.656;23.394;2023-04-24T09:35:04;3.90;;;3.30;;
77722;SDS011;67811;42.656;23.394;2023-04-24T09:37:34;5.43;;;4.00;;
77722;SDS011;67811;42.656;23.394;2023-04-24T09:40:16;7.50;;;3.67;;
77722;SDS011;67811;42.656;23.394;2023-04-24T09:42:54;12.45;;;3.95;;
77722;SDS011;67811;42.656;23.394;2023-04-24T09:45:21;19.83;;;4.75;;
77722;SDS011;67811;42.656;23.394;2023-04-24T09:47:46;24.42;;;4.50;;
77722;SDS011;67811;42.656;23.394;2023-04-24T09:50:17;6.85;;;3.85;;
77722;SDS011;67811;42.656;23.394;2023-04-24T09:52:42;7.05;;;3.22;;
77722;SDS011;67811;42.656;23.394;2023-04-24T09:55:17;5.07;;;4.18;;
77722;SDS011;67811;42.656;23.394;2023-04-24T09:57:53;11.45;;;4.38;;
77722;SDS011;67811;42.656;23.394;2023-04-24T10:00:21;5.68;;;3.80;;
77722;SDS011;67811;42.656;23.394;2023-04-24T10:02:51;4.97;;;3.55;;
77722;SDS011;67811;42.656;23.394;2023-04-24T10:05:22;6.75;;;3.55;;
77722;SDS011;67811;42.656;23.394;2023-04-24T10:07:48;7.38;;;3.80;;
77722;SDS011;67811;42.656;23.394;2023-04-24T10:10:14;8.02;;;3.28;;
77722;SDS011;67811;42.656;23.394;2023-04-24T10:12:39;5.32;;;3.80;;
77722;SDS011;67811;42.656;23.394;2023-04-24T10:15:05;5.25;;;3.10;;
77722;SDS011;67811;42.656;23.394;2023-04-24T10:17:31;5.60;;;3.42;;
77722;SDS011;67811;42.656;23.394;2023-04-24T10:19:57;4.25;;;3.47;;
77722;SDS011;67811;42.656;23.394;2023-04-24T10:22:25;7.43;;;3.60;;
77722;SDS011;67811;42.656;23.394;2023-04-24T10:24:51;4.50;;;3.30;;
77722;SDS011;67811;42.656;23.394;2023-04-24T10:27:17;8.85;;;3.80;;
77722;SDS011;67811;42.656;23.394;2023-04-24T10:29:45;5.93;;;3.30;;
77722;SDS011;67811;42.656;23.394;2023-04-24T10:32:12;5.07;;;3.60;;
77722;SDS011;67811;42.656;23.394;2023-04-24T10:34:37;7.90;;;3.85;;
77722;SDS011;67811;42.656;23.394;2023-04-24T10:37:03;5.68;;;3.08;;
77722;SDS011;67811;42.656;23.394;2023-04-24T10:39:28;7.15;;;3.03;;
77722;SDS011;67811;42.656;23.394;2023-04-24T10:41:54;6.68;;;3.42;;
77722;SDS011;67811;42.656;23.394;2023-04-24T10:44:20;7.07;;;3.22;;
77722;SDS011;67811;42.656;23.394;2023-04-24T10:49:17;7.45;;;3.38;;
77722;SDS011;67811;42.656;23.394;2023-04-24T10:51:53;4.20;;;3.10;;
77722;SDS011;67811;42.656;23.394;2023-04-24T10:54:25;6.47;;;3.20;;
77722;SDS011;67811;42.656;23.394;2023-04-24T10:56:51;6.90;;;3.90;;
77722;SDS011;67811;42.656;23.394;2023-04-24T10:59:26;6.63;;;3.30;;
77722;SDS011;67811;42.656;23.394;2023-04-24T11:01:53;6.60;;;3.83;;
77722;SDS011;67811;42.656;23.394;2023-04-24T11:04:28;5.40;;;3.70;;
77722;SDS011;67811;42.656;23.394;2023-04-24T11:06:55;5.03;;;3.33;;
77722;SDS011;67811;42.656;23.394;2023-04-24T11:09:20;6.03;;;3.08;;
77722;SDS011;67811;42.656;23.394;2023-04-24T11:11:46;4.30;;;3.28;;
77722;SDS011;67811;42.656;23.394;2023-04-24T11:14:15;7.70;;;3.10;;
77722;SDS011;67811;42.656;23.394;2023-04-24T11:19:07;5.82;;;3.55;;
77722;SDS011;67811;42.656;23.394;2023-04-24T11:21:44;5.13;;;3.58;;
77722;SDS011;67811;42.656;23.394;2023-04-24T11:24:22;4.93;;;3.15;;
77722;SDS011;67811;42.656;23.394;2023-04-24T11:27:12;4.20;;;3.38;;
77722;SDS011;67811;42.656;23.394;2023-04-24T11:29:44;5.43;;;3.75;;
77722;SDS011;67811;42.656;23.394;2023-04-24T11:35:02;3.63;;;2.72;;
77722;SDS011;67811;42.656;23.394;2023-04-24T11:37:33;19.55;;;4.28;;
77722;SDS011;67811;42.656;23.394;2023-04-24T11:40:00;6.13;;;3.15;;
77722;SDS011;67811;42.656;23.394;2023-04-24T11:42:26;11.65;;;3.05;;
77722;SDS011;67811;42.656;23.394;2023-04-24T11:44:52;7.40;;;2.97;;
77722;SDS011;67811;42.656;23.394;2023-04-24T11:47:18;4.15;;;2.90;;
77722;SDS011;67811;42.656;23.394;2023-04-24T11:49:44;6.50;;;3.58;;
77722;SDS011;67811;42.656;23.394;2023-04-24T11:52:09;4.28;;;2.88;;
77722;SDS011;67811;42.656;23.394;2023-04-24T11:54:35;2.75;;;1.90;;
77722;SDS011;67811;42.656;23.394;2023-04-24T11:57:03;3.50;;;2.90;;
77722;SDS011;67811;42.656;23.394;2023-04-24T11:59:29;3.50;;;2.88;;
77722;SDS011;67811;42.656;23.394;2023-04-24T12:01:54;5.28;;;3.05;;
77722;SDS011;67811;42.656;23.394;2023-04-24T12:04:20;3.03;;;2.50;;
77722;SDS011;67811;42.656;23.394;2023-04-24T12:07:01;3.67;;;2.38;;
77722;SDS011;67811;42.656;23.394;2023-04-24T12:09:27;3.13;;;2.22;;
77722;SDS011;67811;42.656;23.394;2023-04-24T12:11:53;4.97;;;2.20;;
77722;SDS011;67811;42.656;23.394;2023-04-24T12:14:19;3.42;;;2.65;;
77722;SDS011;67811;42.656;23.394;2023-04-24T12:16:47;2.45;;;1.90;;
77722;SDS011;67811;42.656;23.394;2023-04-24T12:19:17;3.78;;;1.85;;
77722;SDS011;67811;42.656;23.394;2023-04-24T12:21:43;6.32;;;2.30;;
77722;SDS011;67811;42.656;23.394;2023-04-24T12:24:09;2.83;;;1.75;;
77722;SDS011;67811;42.656;23.394;2023-04-24T12:26:34;3.33;;;2.17;;
77722;SDS011;67811;42.656;23.394;2023-04-24T12:29:01;7.05;;;2.95;;
77722;SDS011;67811;42.656;23.394;2023-04-24T12:31:26;4.68;;;2.85;;
77722;SDS011;67811;42.656;23.394;2023-04-24T12:33:52;3.15;;;2.75;;
77722;SDS011;67811;42.656;23.394;2023-04-24T12:36:17;4.45;;;3.25;;
77722;SDS011;67811;42.656;23.394;2023-04-24T12:38:43;4.78;;;3.25;;
77722;SDS011;67811;42.656;23.394;2023-04-24T12:41:10;4.53;;;2.63;;
77722;SDS011;67811;42.656;23.394;2023-04-24T12:43:38;3.75;;;2.45;;
77722;SDS011;67811;42.656;23.394;2023-04-24T12:46:16;4.72;;;1.65;;
77722;SDS011;67811;42.656;23.394;2023-04-24T12:48:41;2.95;;;1.80;;
77722;SDS011;67811;42.656;23.394;2023-04-24T12:51:06;3.83;;;1.90;;
77722;SDS011;67811;42.656;23.394;2023-04-24T12:53:32;3.33;;;3.03;;
77722;SDS011;67811;42.656;23.394;2023-04-24T12:55:57;4.30;;;3.03;;
77722;SDS011;67811;42.656;23.394;2023-04-24T12:58:22;1.65;;;1.23;;
77722;SDS011;67811;42.656;23.394;2023-04-24T13:00:48;3.38;;;3.08;;
77722;SDS011;67811;42.656;23.394;2023-04-24T13:03:13;2.90;;;2.40;;
77722;SDS011;67811;42.656;23.394;2023-04-24T13:05:39;2.05;;;1.85;;
77722;SDS011;67811;42.656;23.394;2023-04-24T13:08:04;2.33;;;2.13;;
77722;SDS011;67811;42.656;23.394;2023-04-24T13:10:29;2.05;;;1.60;;
77722;SDS011;67811;42.656;23.394;2023-04-24T13:12:55;3.85;;;2.38;;
77722;SDS011;67811;42.656;23.394;2023-04-24T13:15:21;3.97;;;2.72;;
77722;SDS011;67811;42.656;23.394;2023-04-24T13:17:46;2.97;;;1.88;;
77722;SDS011;67811;42.656;23.394;2023-04-24T13:20:11;5.50;;;3.65;;
77722;SDS011;67811;42.656;23.394;2023-04-24T13:22:37;6.72;;;4.28;;
77722;SDS011;67811;42.656;23.394;2023-04-24T13:25:02;3.53;;;2.53;;
77722;SDS011;67811;42.656;23.394;2023-04-24T13:27:27;3.45;;;2.45;;
77722;SDS011;67811;42.656;23.394;2023-04-24T13:29:53;5.18;;;2.83;;
77722;SDS011;67811;42.656;23.394;2023-04-24T13:32:18;4.05;;;2.67;;
77722;SDS011;67811;42.656;23.394;2023-04-24T13:34:43;4.03;;;3.20;;
77722;SDS011;67811;42.656;23.394;2023-04-24T13:37:09;3.55;;;2.55;;
77722;SDS011;67811;42.656;23.394;2023-04-24T13:39:34;7.03;;;3.10;;
77722;SDS011;67811;42.656;23.394;2023-04-24T13:41:59;3.35;;;2.65;;
77722;SDS011;67811;42.656;23.394;2023-04-24T13:44:25;6.78;;;3.10;;
77722;SDS011;67811;42.656;23.394;2023-04-24T13:46:51;4.00;;;2.42;;
77722;SDS011;67811;42.656;23.394;2023-04-24T13:49:18;5.32;;;3.22;;
77722;SDS011;67811;42.656;23.394;2023-04-24T13:51:43;5.38;;;3.78;;
77722;SDS011;67811;42.656;23.394;2023-04-24T13:54:08;5.13;;;4.10;;
77722;SDS011;67811;42.656;23.394;2023-04-24T13:56:34;4.97;;;3.58;;
77722;SDS011;67811;42.656;23.394;2023-04-24T13:58:59;5.22;;;4.40;;
77722;SDS011;67811;42.656;23.394;2023-04-24T14:01:25;4.10;;;2.60;;
77722;SDS011;67811;42.656;23.394;2023-04-24T14:03:51;4.00;;;3.50;;
77722;SDS011;67811;42.656;23.394;2023-04-24T14:06:17;5.57;;;4.38;;
77722;SDS011;67811;42.656;23.394;2023-04-24T14:08:46;4.43;;;3.03;;
77722;SDS011;67811;42.656;23.394;2023-04-24T14:11:12;3.45;;;2.35;;
77722;SDS011;67811;42.656;23.394;2023-04-24T14:13:38;3.65;;;2.97;;
77722;SDS011;67811;42.656;23.394;2023-04-24T14:16:04;3.58;;;2.45;;
77722;SDS011;67811;42.656;23.394;2023-04-24T14:18:29;3.78;;;2.58;;
77722;SDS011;67811;42.656;23.394;2023-04-24T14:20:55;3.88;;;3.30;;
77722;SDS011;67811;42.656;23.394;2023-04-24T14:23:20;3.95;;;3.13;;
77722;SDS011;67811;42.656;23.394;2023-04-24T14:25:46;6.25;;;3.58;;
77722;SDS011;67811;42.656;23.394;2023-04-24T14:28:11;3.95;;;3.55;;
77722;SDS011;67811;42.656;23.394;2023-04-24T14:30:36;4.05;;;2.97;;
77722;SDS011;67811;42.656;23.394;2023-04-24T14:33:02;4.72;;;2.83;;
77722;SDS011;67811;42.656;23.394;2023-04-24T14:35:27;3.83;;;3.22;;